Marienberg, Germany

7:05 AM CEST on May 07, 2015 (GMT +0200)
Olbernhau-Erzgebirge | | Change Station
CLOSE
Current Station
Personal Weather Station
Location: Olbernhau, SACHSEN
Elevation: 1585 ft
Nearby Weather Stations

Elev 1585 ft 50.66 °N, 13.35 °E | Updated 3 minutes ago

Partly Cloudy
Partly Cloudy
42.1 °F
Feels Like 42 °F
N
3.0
Wind Variable Wind from NNE
Gusts 3.0 mph

Today
High -- | Low -- °F
--% Chance of Precip.
Yesterday
High -- | Low -- °F
Precip. -- in
5:32 AM 8:36 PM
Waning Gibbous, 90% visible
Pressure 30.06 in
Visibility 6.2 miles
Clouds Few 1300 ft
Windchill 42 °F
Dew Point 39 °F
Humidity 89%
Rainfall 0.00 in
Snow Depth Not available.
UV 1 out of 12
Pollen Not available.
Air Quality Not available.
Flu Activity Not available.
METAR LKKV 070500Z 24003KT 9999 FEW013 08/04 Q1018

More Conditions Fewer Conditions

Pressure 30.06 in
Visibility 6.2 miles
Clouds Few 1300 ft
Windchill 42 °F
Dew Point 39 °F
Humidity 89%
Rainfall 0.00 in
Snow Depth Not available.
UV 1 out of 12
Pollen Not available.
Air Quality Not available.
Flu Activity Not available.
METAR LKKV 070500Z 24003KT 9999 FEW013 08/04 Q1018

More Conditions Fewer Conditions

10-Day Weather Forecast

Almanac

Astronomy

May. 07, 2015 Rise Set
Actual Time
Civil Twilight
Nautical Twilight
Astronomical Twilight
Moon
Length of Visible Light
Length of Day
Tomorrow will be .
, % of the Moon is Illuminated

Today's Extremes

Country Highs Country Lows

Community

WunderPhotos

Upload Photos

1,819,123 photos uploaded!

WunderBlogs® & News

Nearby

Air Quality

  Air Quality AQ Index Pollutant
Not available.

Snow Depth

Station Depth Elevation

Earthquake Activity

City Distance Mag. Time & Date
Minimum magnitude displayed is 2.5.

Coastal Water Temperatures

Place Temperature

Stations

Nearby Weather Stations

Station Location Temp. Windchill Dew Point Humidity Wind Precip. Elev Updated Type